createdAt,value
2022-09-03T00:04:25.867Z,100441.00
2022-09-03T00:10:52.442Z,100442.00
2022-09-03T00:17:18.416Z,100433.00
2022-09-03T00:23:24.886Z,100430.00
2022-09-03T00:29:33.642Z,100425.00
2022-09-03T00:35:43.469Z,100426.00
2022-09-03T00:42:12.910Z,100428.00
2022-09-03T00:48:32.922Z,100423.00
2022-09-03T00:54:47.105Z,100424.00
2022-09-03T01:00:51.158Z,100430.00
2022-09-03T01:07:19.841Z,100432.00
2022-09-03T01:13:35.207Z,100443.00
2022-09-03T01:19:52.550Z,100443.00
2022-09-03T01:26:01.883Z,100430.00
2022-09-03T01:32:20.238Z,100428.00
2022-09-03T01:38:46.706Z,100440.00
2022-09-03T01:45:23.513Z,100437.00
2022-09-03T01:51:29.871Z,100445.00
2022-09-03T01:57:41.934Z,100441.00
2022-09-03T02:03:46.326Z,100438.00
2022-09-03T02:09:48.676Z,100443.00
2022-09-03T02:15:53.551Z,100446.00
2022-09-03T02:21:57.596Z,100447.00
2022-09-03T02:28:00.333Z,100451.00
2022-09-03T02:34:02.425Z,100461.00
2022-09-03T02:40:10.747Z,100461.00
2022-09-03T02:46:22.145Z,100459.00
2022-09-03T02:52:24.340Z,100461.00
2022-09-03T02:58:27.075Z,100463.00
2022-09-03T03:04:31.200Z,100470.00
2022-09-03T03:10:33.346Z,100461.00
2022-09-03T03:16:36.025Z,100469.00
2022-09-03T03:22:38.284Z,100467.00
2022-09-03T03:28:42.705Z,100465.00
2022-09-03T03:34:44.983Z,100461.00
2022-09-03T03:40:47.298Z,100468.00
2022-09-03T03:46:49.718Z,100472.00
2022-09-03T03:52:52.130Z,100472.00
2022-09-03T03:58:55.227Z,100466.00
2022-09-03T04:04:57.683Z,100484.00
2022-09-03T04:11:02.871Z,100477.00
2022-09-03T04:17:05.066Z,100472.00
2022-09-03T04:23:07.326Z,100475.00
2022-09-03T04:29:10.673Z,100482.00
2022-09-03T04:35:12.792Z,100479.00
2022-09-03T04:41:21.133Z,100486.00
2022-09-03T04:47:23.466Z,100498.00
2022-09-03T04:53:25.717Z,100510.00
2022-09-03T04:59:27.776Z,100501.00
2022-09-03T05:05:29.799Z,100515.00
2022-09-03T05:11:32.186Z,100518.00
2022-09-03T05:17:37.666Z,100511.00
2022-09-03T05:23:42.913Z,100520.00
2022-09-03T05:29:45.778Z,100515.00
2022-09-03T05:35:48.168Z,100519.00
2022-09-03T05:41:52.545Z,100518.00
2022-09-03T05:47:54.656Z,100520.00
2022-09-03T05:53:57.692Z,100532.00
2022-09-03T06:00:00.594Z,100528.00
2022-09-03T06:06:02.741Z,100531.00
2022-09-03T06:12:05.122Z,100541.00
2022-09-03T06:18:07.230Z,100550.00
2022-09-03T06:24:21.823Z,100571.00
2022-09-03T06:30:24.569Z,100571.00
2022-09-03T06:36:26.906Z,100580.00
2022-09-03T06:42:28.936Z,100577.00
2022-09-03T06:48:33.235Z,100579.00
2022-09-03T06:54:35.438Z,100575.00
2022-09-03T07:00:37.991Z,100583.00
2022-09-03T07:06:41.192Z,100592.00
2022-09-03T07:12:43.453Z,100603.00
2022-09-03T07:18:46.841Z,100594.00
2022-09-03T07:24:49.204Z,100613.00
2022-09-03T07:30:52.630Z,100612.00
2022-09-03T07:36:55.262Z,100620.00
2022-09-03T07:42:59.155Z,100629.00
2022-09-03T07:49:02.653Z,100619.00
2022-09-03T07:55:05.178Z,100632.00
2022-09-03T08:01:08.975Z,100630.00
2022-09-03T08:07:13.766Z,100641.00
2022-09-03T08:13:16.080Z,100636.00
2022-09-03T08:19:19.319Z,100631.00
2022-09-03T08:25:25.066Z,100648.00
2022-09-03T08:31:28.745Z,100638.00
2022-09-03T08:37:32.921Z,100643.00
2022-09-03T08:43:50.739Z,100653.00
2022-09-03T08:50:02.616Z,100648.00
2022-09-03T08:56:10.680Z,100659.00
2022-09-03T09:02:42.685Z,100670.00
2022-09-03T09:09:03.404Z,100668.00
2022-09-03T09:15:27.491Z,100665.00
2022-09-03T09:21:37.384Z,100659.00
2022-09-03T09:27:47.265Z,100654.00
2022-09-03T09:33:49.555Z,100656.00
2022-09-03T09:40:00.758Z,100660.00
2022-09-03T09:46:25.844Z,100671.00
2022-09-03T09:52:31.815Z,100667.00
2022-09-03T09:58:35.206Z,100680.00
2022-09-03T10:04:38.098Z,100684.00
2022-09-03T10:10:49.517Z,100689.00
2022-09-03T10:17:01.439Z,100679.00
2022-09-03T10:23:08.868Z,100688.00
2022-09-03T10:29:11.450Z,100697.00
2022-09-03T10:35:33.967Z,100708.00
2022-09-03T10:42:00.013Z,100729.00
2022-09-03T10:48:40.515Z,100730.00
2022-09-03T10:54:48.665Z,100731.00
2022-09-03T11:00:59.224Z,100722.00
2022-09-03T11:07:06.133Z,100743.00
2022-09-03T11:13:23.496Z,100738.00
2022-09-03T11:19:37.248Z,100731.00
2022-09-03T11:25:49.342Z,100734.00
2022-09-03T11:32:08.193Z,100734.00
2022-09-03T11:38:16.906Z,100729.00
2022-09-03T11:44:20.145Z,100718.00
2022-09-03T11:50:34.309Z,100724.00
2022-09-03T11:56:36.607Z,100733.00
2022-09-03T12:02:45.801Z,100748.00
2022-09-03T12:09:08.258Z,100749.00
2022-09-03T12:15:48.124Z,100747.00
2022-09-03T12:21:50.795Z,100736.00
2022-09-03T12:27:53.995Z,100750.00
2022-09-03T12:33:59.927Z,100760.00
2022-09-03T12:40:07.453Z,100743.00
2022-09-03T12:46:16.333Z,100742.00
2022-09-03T12:52:36.902Z,100756.00
2022-09-03T12:58:53.290Z,100753.00
2022-09-03T13:04:56.616Z,100759.00
2022-09-03T13:11:04.222Z,100742.00
2022-09-03T13:17:27.963Z,100758.00
2022-09-03T13:23:41.619Z,100753.00
2022-09-03T13:30:17.508Z,100759.00
2022-09-03T13:36:26.292Z,100769.00
2022-09-03T13:42:41.677Z,100765.00
2022-09-03T13:49:09.382Z,100765.00
2022-09-03T13:55:38.293Z,100789.00
2022-09-03T14:02:06.808Z,100781.00
2022-09-03T14:08:56.719Z,100783.00
2022-09-03T14:15:26.332Z,100781.00
2022-09-03T14:21:53.783Z,100768.00
2022-09-03T14:28:13.038Z,100775.00
2022-09-03T14:34:42.879Z,100767.00
2022-09-03T14:40:47.462Z,100781.00
2022-09-03T14:47:27.483Z,100780.00
2022-09-03T14:53:45.624Z,100775.00
2022-09-03T14:59:50.774Z,100777.00
2022-09-03T15:06:08.086Z,100765.00
2022-09-03T15:12:13.843Z,100764.00
2022-09-03T15:18:44.380Z,100790.00
2022-09-03T15:24:53.996Z,100797.00
2022-09-03T15:31:12.720Z,100797.00
2022-09-03T15:37:41.063Z,100804.00
2022-09-03T15:43:47.368Z,100807.00
2022-09-03T15:50:26.942Z,100820.00
2022-09-03T15:56:29.706Z,100824.00
2022-09-03T16:02:52.775Z,100815.00
2022-09-03T16:09:02.461Z,100824.00
2022-09-03T16:15:20.252Z,100824.00
2022-09-03T16:21:51.797Z,100836.00
2022-09-03T16:28:21.430Z,100836.00
2022-09-03T16:34:57.568Z,100849.00
2022-09-03T16:41:24.779Z,100847.00
2022-09-03T16:47:45.472Z,100856.00
2022-09-03T16:54:09.538Z,100870.00
2022-09-03T17:00:15.138Z,100882.00
2022-09-03T17:06:36.321Z,100883.00
2022-09-03T17:13:03.045Z,100893.00
2022-09-03T17:19:26.627Z,100887.00
2022-09-03T17:25:37.909Z,100901.00
2022-09-03T17:31:51.758Z,100899.00
2022-09-03T17:38:15.829Z,100919.00
2022-09-03T17:44:44.337Z,100924.00
2022-09-03T17:50:57.808Z,100918.00
2022-09-03T17:57:18.000Z,100921.00
2022-09-03T18:03:24.435Z,100926.00
2022-09-03T18:09:37.883Z,100928.00
2022-09-03T18:15:52.439Z,100935.00
2022-09-03T18:22:13.298Z,100945.00
2022-09-03T18:28:41.731Z,100938.00
2022-09-03T18:35:02.709Z,100933.00
2022-09-03T18:42:01.379Z,100945.00
2022-09-03T18:48:53.131Z,100943.00
2022-09-03T18:56:01.768Z,100941.00
2022-09-03T19:02:34.844Z,100936.00
2022-09-03T19:09:37.511Z,100948.00
2022-09-03T19:16:11.495Z,100941.00
2022-09-03T19:22:47.431Z,100955.00
2022-09-03T19:29:14.078Z,100963.00
2022-09-03T19:35:41.041Z,100972.00
2022-09-03T19:42:21.465Z,100973.00
2022-09-03T19:49:09.331Z,100985.00
2022-09-03T19:55:32.251Z,100989.00
2022-09-03T20:01:56.007Z,100988.00
2022-09-03T20:27:51.746Z,101007.00
2022-09-03T20:47:48.572Z,101008.00
2022-09-03T20:54:20.941Z,101009.00
2022-09-03T21:00:23.522Z,101013.00
2022-09-03T21:06:28.339Z,101021.00
2022-09-03T21:12:54.111Z,101024.00
2022-09-03T21:19:22.543Z,101014.00
2022-09-03T21:25:35.872Z,101014.00
2022-09-03T21:31:54.499Z,101018.00
2022-09-03T21:38:14.423Z,101022.00
2022-09-03T21:44:46.443Z,101038.00
2022-09-03T21:51:00.468Z,101030.00
2022-09-03T21:57:25.538Z,101041.00
2022-09-03T22:03:27.686Z,101041.00
2022-09-03T22:09:41.282Z,101026.00
2022-09-03T22:15:50.997Z,101028.00
2022-09-03T22:22:00.133Z,101036.00
2022-09-03T22:28:15.547Z,101032.00
2022-09-03T22:34:37.549Z,101018.00
2022-09-03T22:40:58.583Z,101021.00
2022-09-03T22:47:26.143Z,101020.00
2022-09-03T22:53:40.199Z,101012.00
2022-09-03T22:59:49.834Z,101016.00
2022-09-03T23:06:01.159Z,101004.00
2022-09-03T23:12:10.180Z,101015.00
2022-09-03T23:18:17.815Z,101018.00
2022-09-03T23:24:33.773Z,101006.00
2022-09-03T23:30:36.717Z,101018.00
2022-09-03T23:37:33.120Z,101012.00
2022-09-03T23:43:49.361Z,101021.00
2022-09-03T23:50:08.987Z,101024.00
2022-09-03T23:56:39.062Z,101034.00
